sensor_id;sensor_type;location;lat;lon;timestamp;pressure;altitude;pressure_sealevel;temperature;humidity
54308;BME280;40208;39.778;2.710;2023-01-29T00:01:39;101926.97;;;6.36;100.00
54308;BME280;40208;39.778;2.710;2023-01-29T00:04:24;101922.50;;;6.46;100.00
54308;BME280;40208;39.778;2.710;2023-01-29T00:07:08;101911.09;;;6.42;100.00
54308;BME280;40208;39.778;2.710;2023-01-29T00:09:53;101916.34;;;6.42;100.00
54308;BME280;40208;39.778;2.710;2023-01-29T00:12:38;101911.09;;;6.42;100.00
54308;BME280;40208;39.778;2.710;2023-01-29T00:15:23;101904.09;;;6.38;100.00
54308;BME280;40208;39.778;2.710;2023-01-29T00:18:07;101921.59;;;6.47;100.00
54308;BME280;40208;39.778;2.710;2023-01-29T00:20:52;101913.69;;;6.47;100.00
54308;BME280;40208;39.778;2.710;2023-01-29T00:23:37;101911.03;;;6.48;100.00
54308;BME280;40208;39.778;2.710;2023-01-29T00:26:22;101903.94;;;6.55;100.00
54308;BME280;40208;39.778;2.710;2023-01-29T00:29:07;101906.59;;;6.52;100.00
54308;BME280;40208;39.778;2.710;2023-01-29T00:31:51;101911.00;;;6.50;100.00
54308;BME280;40208;39.778;2.710;2023-01-29T00:34:36;101897.81;;;6.50;100.00
54308;BME280;40208;39.778;2.710;2023-01-29T00:37:20;101908.38;;;6.50;100.00
54308;BME280;40208;39.778;2.710;2023-01-29T00:40:05;101908.41;;;6.48;100.00
54308;BME280;40208;39.778;2.710;2023-01-29T00:42:49;101908.41;;;6.47;100.00
54308;BME280;40208;39.778;2.710;2023-01-29T00:45:52;101903.13;;;6.47;100.00
54308;BME280;40208;39.778;2.710;2023-01-29T00:48:36;101907.53;;;6.45;100.00
54308;BME280;40208;39.778;2.710;2023-01-29T00:51:20;101901.44;;;6.41;100.00
54308;BME280;40208;39.778;2.710;2023-01-29T00:54:05;101903.19;;;6.41;100.00
54308;BME280;40208;39.778;2.710;2023-01-29T00:56:50;101903.22;;;6.39;100.00
54308;BME280;40208;39.778;2.710;2023-01-29T00:59:34;101895.22;;;6.45;100.00
54308;BME280;40208;39.778;2.710;2023-01-29T01:02:19;101902.19;;;6.52;100.00
54308;BME280;40208;39.778;2.710;2023-01-29T01:05:22;101909.25;;;6.50;100.00
54308;BME280;40208;39.778;2.710;2023-01-29T01:08:06;101907.53;;;6.48;100.00
54308;BME280;40208;39.778;2.710;2023-01-29T01:11:11;101907.53;;;6.45;100.00
54308;BME280;40208;39.778;2.710;2023-01-29T01:13:56;101916.34;;;6.42;100.00
54308;BME280;40208;39.778;2.710;2023-01-29T01:16:46;101917.28;;;6.38;100.00
54308;BME280;40208;39.778;2.710;2023-01-29T01:19:32;101912.91;;;6.37;100.00
54308;BME280;40208;39.778;2.710;2023-01-29T01:22:16;101910.31;;;6.34;100.00
54308;BME280;40208;39.778;2.710;2023-01-29T01:25:01;101907.66;;;6.34;100.00
54308;BME280;40208;39.778;2.710;2023-01-29T01:27:46;101906.72;;;6.41;100.00
54308;BME280;40208;39.778;2.710;2023-01-29T01:30:31;101906.72;;;6.40;100.00
54308;BME280;40208;39.778;2.710;2023-01-29T01:33:16;101905.84;;;6.39;100.00
54308;BME280;40208;39.778;2.710;2023-01-29T01:36:01;101903.25;;;6.36;100.00
54308;BME280;40208;39.778;2.710;2023-01-29T01:38:45;101903.25;;;6.36;100.00
54308;BME280;40208;39.778;2.710;2023-01-29T01:41:30;101907.63;;;6.37;100.00
54308;BME280;40208;39.778;2.710;2023-01-29T01:47:39;101908.56;;;6.31;100.00
54308;BME280;40208;39.778;2.710;2023-01-29T01:50:30;101911.22;;;6.28;100.00
54308;BME280;40208;39.778;2.710;2023-01-29T01:53:21;101909.44;;;6.32;100.00
54308;BME280;40208;39.778;2.710;2023-01-29T01:56:08;101912.03;;;6.36;100.00
54308;BME280;40208;39.778;2.710;2023-01-29T01:58:54;101911.13;;;6.39;100.00
54308;BME280;40208;39.778;2.710;2023-01-29T02:01:40;101912.91;;;6.37;100.00
54308;BME280;40208;39.778;2.710;2023-01-29T02:04:26;101918.16;;;6.35;100.00
54308;BME280;40208;39.778;2.710;2023-01-29T02:07:29;101920.81;;;6.39;100.00
54308;BME280;40208;39.778;2.710;2023-01-29T02:10:38;101925.16;;;6.41;100.00
54308;BME280;40208;39.778;2.710;2023-01-29T02:13:25;101918.00;;;6.52;100.00
54308;BME280;40208;39.778;2.710;2023-01-29T02:16:10;101906.63;;;6.47;100.00
54308;BME280;40208;39.778;2.710;2023-01-29T02:18:54;101908.41;;;6.47;100.00
54308;BME280;40208;39.778;2.710;2023-01-29T02:24:40;101914.53;;;6.47;100.00
54308;BME280;40208;39.778;2.710;2023-01-29T02:36:56;101909.28;;;6.49;100.00
54308;BME280;40208;39.778;2.710;2023-01-29T02:39:47;101911.91;;;6.47;100.00
54308;BME280;40208;39.778;2.710;2023-01-29T02:42:37;101922.41;;;6.52;100.00
54308;BME280;40208;39.778;2.710;2023-01-29T02:45:27;101917.00;;;6.64;100.00
54308;BME280;40208;39.778;2.710;2023-01-29T02:48:19;101924.91;;;6.67;100.00
54308;BME280;40208;39.778;2.710;2023-01-29T02:51:06;101922.22;;;6.72;100.00
54308;BME280;40208;39.778;2.710;2023-01-29T02:54:04;101918.69;;;6.71;100.00
54308;BME280;40208;39.778;2.710;2023-01-29T02:56:56;101921.31;;;6.71;100.00
54308;BME280;40208;39.778;2.710;2023-01-29T02:59:45;101921.38;;;6.70;100.00
54308;BME280;40208;39.778;2.710;2023-01-29T03:02:34;101914.31;;;6.69;100.00
54308;BME280;40208;39.778;2.710;2023-01-29T03:05:23;101909.94;;;6.68;100.00
54308;BME280;40208;39.778;2.710;2023-01-29T03:08:11;101922.22;;;6.70;100.00
54308;BME280;40208;39.778;2.710;2023-01-29T03:11:00;101931.88;;;6.73;100.00
54308;BME280;40208;39.778;2.710;2023-01-29T03:19:40;101922.19;;;6.73;100.00
54308;BME280;40208;39.778;2.710;2023-01-29T03:22:26;101927.56;;;6.67;100.00
54308;BME280;40208;39.778;2.710;2023-01-29T03:25:12;101933.75;;;6.63;100.00
54308;BME280;40208;39.778;2.710;2023-01-29T03:28:17;101925.00;;;6.56;100.00
54308;BME280;40208;39.778;2.710;2023-01-29T03:31:21;101929.41;;;6.54;100.00
54308;BME280;40208;39.778;2.710;2023-01-29T03:34:26;101929.50;;;6.47;100.00
54308;BME280;40208;39.778;2.710;2023-01-29T03:37:20;101929.53;;;6.44;100.00
54308;BME280;40208;39.778;2.710;2023-01-29T03:40:09;101942.66;;;6.51;100.00
54308;BME280;40208;39.778;2.710;2023-01-29T03:43:08;101930.31;;;6.52;100.00
54308;BME280;40208;39.778;2.710;2023-01-29T03:48:41;101928.56;;;6.52;100.00
54308;BME280;40208;39.778;2.710;2023-01-29T03:51:31;101921.53;;;6.51;100.00
54308;BME280;40208;39.778;2.710;2023-01-29T03:57:34;101916.22;;;6.54;100.00
54308;BME280;40208;39.778;2.710;2023-01-29T04:00:21;101917.09;;;6.58;100.00
54308;BME280;40208;39.778;2.710;2023-01-29T04:05:58;101909.22;;;6.53;100.00
54308;BME280;40208;39.778;2.710;2023-01-29T04:09:02;101913.63;;;6.53;100.00
54308;BME280;40208;39.778;2.710;2023-01-29T04:11:56;101919.78;;;6.52;100.00
54308;BME280;40208;39.778;2.710;2023-01-29T04:14:43;101910.19;;;6.45;100.00
54308;BME280;40208;39.778;2.710;2023-01-29T04:17:33;101911.09;;;6.42;100.00
54308;BME280;40208;39.778;2.710;2023-01-29T04:20:20;101904.09;;;6.38;100.00
54308;BME280;40208;39.778;2.710;2023-01-29T04:23:05;101906.72;;;6.38;100.00
54308;BME280;40208;39.778;2.710;2023-01-29T04:29:02;101907.63;;;6.39;100.00
54308;BME280;40208;39.778;2.710;2023-01-29T04:31:59;101898.81;;;6.38;100.00
54308;BME280;40208;39.778;2.710;2023-01-29T04:40:19;101906.63;;;6.49;100.00
54308;BME280;40208;39.778;2.710;2023-01-29T04:43:07;101901.31;;;6.55;100.00
54308;BME280;40208;39.778;2.710;2023-01-29T04:49:07;101903.75;;;6.70;100.00
54308;BME280;40208;39.778;2.710;2023-01-29T04:51:50;101909.84;;;6.77;100.00
54308;BME280;40208;39.778;2.710;2023-01-29T04:57:49;101911.59;;;6.78;100.00
54308;BME280;40208;39.778;2.710;2023-01-29T05:00:42;101921.22;;;6.82;100.00
54308;BME280;40208;39.778;2.710;2023-01-29T05:03:27;101916.91;;;6.76;100.00
54308;BME280;40208;39.778;2.710;2023-01-29T05:06:13;101911.47;;;6.87;100.00
54308;BME280;40208;39.778;2.710;2023-01-29T05:08:59;101918.50;;;6.90;100.00
54308;BME280;40208;39.778;2.710;2023-01-29T05:11:45;101924.63;;;6.92;100.00
54308;BME280;40208;39.778;2.710;2023-01-29T05:14:31;101929.94;;;6.89;100.00
54308;BME280;40208;39.778;2.710;2023-01-29T05:17:17;101937.88;;;6.86;100.00
54308;BME280;40208;39.778;2.710;2023-01-29T05:20:02;101936.97;;;6.90;100.00
54308;BME280;40208;39.778;2.710;2023-01-29T05:22:47;101939.59;;;6.93;100.00
54308;BME280;40208;39.778;2.710;2023-01-29T05:25:32;101944.78;;;6.97;100.00
54308;BME280;40208;39.778;2.710;2023-01-29T05:28:17;101936.94;;;6.93;100.00
54308;BME280;40208;39.778;2.710;2023-01-29T05:31:01;101951.03;;;6.90;100.00
54308;BME280;40208;39.778;2.710;2023-01-29T05:33:46;101951.06;;;6.87;100.00
54308;BME280;40208;39.778;2.710;2023-01-29T05:36:30;101966.06;;;6.84;100.00
54308;BME280;40208;39.778;2.710;2023-01-29T05:39:15;101963.41;;;6.87;100.00
54308;BME280;40208;39.778;2.710;2023-01-29T05:41:59;101971.19;;;6.97;100.00
54308;BME280;40208;39.778;2.710;2023-01-29T05:44:44;101964.13;;;6.99;100.00
54308;BME280;40208;39.778;2.710;2023-01-29T05:47:28;101956.09;;;7.10;100.00
54308;BME280;40208;39.778;2.710;2023-01-29T05:50:13;101963.16;;;7.10;100.00
54308;BME280;40208;39.778;2.710;2023-01-29T05:52:58;101973.75;;;7.05;100.00
54308;BME280;40208;39.778;2.710;2023-01-29T05:55:44;101968.44;;;7.08;100.00
54308;BME280;40208;39.778;2.710;2023-01-29T05:58:29;101972.75;;;7.15;100.00
54308;BME280;40208;39.778;2.710;2023-01-29T06:01:15;101971.78;;;7.21;100.00
54308;BME280;40208;39.778;2.710;2023-01-29T06:04:00;101983.25;;;7.18;100.00
54308;BME280;40208;39.778;2.710;2023-01-29T06:06:44;101981.47;;;7.20;100.00
54308;BME280;40208;39.778;2.710;2023-01-29T06:09:29;101975.19;;;7.32;100.00
54308;BME280;40208;39.778;2.710;2023-01-29T06:12:13;101993.66;;;7.34;100.00
54308;BME280;40208;39.778;2.710;2023-01-29T06:14:58;101992.59;;;7.47;100.00
54308;BME280;40208;39.778;2.710;2023-01-29T06:17:49;101992.59;;;7.49;100.00
54308;BME280;40208;39.778;2.710;2023-01-29T06:20:40;102005.78;;;7.47;100.00
54308;BME280;40208;39.778;2.710;2023-01-29T06:23:31;102003.25;;;7.39;100.00
54308;BME280;40208;39.778;2.710;2023-01-29T06:26:22;102004.19;;;7.35;100.00
54308;BME280;40208;39.778;2.710;2023-01-29T06:29:13;102011.03;;;7.52;100.00
54308;BME280;40208;39.778;2.710;2023-01-29T06:32:04;102014.56;;;7.51;100.00
54308;BME280;40208;39.778;2.710;2023-01-29T06:34:55;102026.88;;;7.52;100.00
54308;BME280;40208;39.778;2.710;2023-01-29T06:37:46;102020.50;;;7.68;100.00
54308;BME280;40208;39.778;2.710;2023-01-29T06:40:37;102023.19;;;7.63;100.00
54308;BME280;40208;39.778;2.710;2023-01-29T06:43:28;102021.47;;;7.62;100.00
54308;BME280;40208;39.778;2.710;2023-01-29T06:46:19;102023.31;;;7.57;100.00
54308;BME280;40208;39.778;2.710;2023-01-29T06:49:04;102019.66;;;7.66;100.00
54308;BME280;40208;39.778;2.710;2023-01-29T06:51:48;102048.72;;;7.66;100.00
54308;BME280;40208;39.778;2.710;2023-01-29T06:54:33;102035.31;;;7.80;100.00
54308;BME280;40208;39.778;2.710;2023-01-29T06:57:17;102030.25;;;7.64;100.00
54308;BME280;40208;39.778;2.710;2023-01-29T07:00:02;102041.75;;;7.62;100.00
54308;BME280;40208;39.778;2.710;2023-01-29T07:02:50;102053.13;;;7.65;100.00
54308;BME280;40208;39.778;2.710;2023-01-29T07:05:34;102046.97;;;7.65;100.00
54308;BME280;40208;39.778;2.710;2023-01-29T07:08:19;102052.03;;;7.83;100.00
54308;BME280;40208;39.778;2.710;2023-01-29T07:11:06;102056.41;;;7.86;100.00
54308;BME280;40208;39.778;2.710;2023-01-29T07:13:50;102064.25;;;7.91;100.00
54308;BME280;40208;39.778;2.710;2023-01-29T07:16:35;102061.81;;;7.77;100.00
54308;BME280;40208;39.778;2.710;2023-01-29T07:19:20;102073.13;;;7.86;100.00
54308;BME280;40208;39.778;2.710;2023-01-29T07:22:05;102061.63;;;7.89;100.00
54308;BME280;40208;39.778;2.710;2023-01-29T07:24:50;102063.31;;;7.96;100.00
54308;BME280;40208;39.778;2.710;2023-01-29T07:27:34;102072.19;;;7.89;100.00
54308;BME280;40208;39.778;2.710;2023-01-29T07:30:19;102080.16;;;7.88;100.00
54308;BME280;40208;39.778;2.710;2023-01-29T07:33:04;102091.72;;;7.79;100.00
54308;BME280;40208;39.778;2.710;2023-01-29T07:35:49;102082.94;;;7.78;100.00
54308;BME280;40208;39.778;2.710;2023-01-29T07:38:34;102084.78;;;7.72;100.00
54308;BME280;40208;39.778;2.710;2023-01-29T07:41:18;102084.66;;;7.81;100.00
54308;BME280;40208;39.778;2.710;2023-01-29T07:44:03;102096.00;;;7.88;100.00
54308;BME280;40208;39.778;2.710;2023-01-29T07:46:48;102094.31;;;7.82;100.00
54308;BME280;40208;39.778;2.710;2023-01-29T07:49:32;102097.13;;;7.71;100.00
54308;BME280;40208;39.778;2.710;2023-01-29T07:52:17;102097.03;;;7.77;100.00
54308;BME280;40208;39.778;2.710;2023-01-29T07:55:02;102111.09;;;7.81;100.00
54308;BME280;40208;39.778;2.710;2023-01-29T07:57:46;102110.19;;;7.83;100.00
54308;BME280;40208;39.778;2.710;2023-01-29T08:00:31;102097.88;;;7.81;100.00
54308;BME280;40208;39.778;2.710;2023-01-29T08:03:16;102115.34;;;7.93;100.00
54308;BME280;40208;39.778;2.710;2023-01-29T08:06:02;102105.72;;;7.87;100.00
54308;BME280;40208;39.778;2.710;2023-01-29T08:08:47;102123.22;;;7.97;100.00
54308;BME280;40208;39.778;2.710;2023-01-29T08:11:31;102120.50;;;8.02;100.00
54308;BME280;40208;39.778;2.710;2023-01-29T08:14:16;102115.19;;;8.05;100.00
54308;BME280;40208;39.778;2.710;2023-01-29T08:17:00;102122.16;;;8.11;100.00
54308;BME280;40208;39.778;2.710;2023-01-29T08:19:44;102141.47;;;8.16;100.00
54308;BME280;40208;39.778;2.710;2023-01-29T08:22:29;102132.59;;;8.21;100.00
54308;BME280;40208;39.778;2.710;2023-01-29T08:25:14;102150.09;;;8.30;100.00
54308;BME280;40208;39.778;2.710;2023-01-29T08:27:59;102154.63;;;8.22;100.00
54308;BME280;40208;39.778;2.710;2023-01-29T08:30:44;102152.91;;;8.18;100.00
54308;BME280;40208;39.778;2.710;2023-01-29T08:33:29;102156.28;;;8.29;100.00
54308;BME280;40208;39.778;2.710;2023-01-29T08:36:13;102166.66;;;8.47;100.00
54308;BME280;40208;39.778;2.710;2023-01-29T08:38:58;102167.34;;;8.59;100.00
54308;BME280;40208;39.778;2.710;2023-01-29T08:41:42;102162.06;;;8.59;100.00
54308;BME280;40208;39.778;2.710;2023-01-29T08:44:27;102161.84;;;8.74;100.00
54308;BME280;40208;39.778;2.710;2023-01-29T08:47:11;102175.81;;;8.84;100.00
54308;BME280;40208;39.778;2.710;2023-01-29T08:49:56;102210.09;;;8.91;100.00
54308;BME280;40208;39.778;2.710;2023-01-29T08:52:40;102206.53;;;8.94;100.00
54308;BME280;40208;39.778;2.710;2023-01-29T08:55:25;102217.25;;;8.86;100.00
54308;BME280;40208;39.778;2.710;2023-01-29T08:58:10;102213.72;;;8.87;100.00
54308;BME280;40208;39.778;2.710;2023-01-29T09:00:55;102220.03;;;8.77;100.00
54308;BME280;40208;39.778;2.710;2023-01-29T09:03:39;102234.25;;;8.72;100.00
54308;BME280;40208;39.778;2.710;2023-01-29T09:06:26;102225.50;;;8.63;100.00
54308;BME280;40208;39.778;2.710;2023-01-29T09:09:11;102245.94;;;8.55;100.00
54308;BME280;40208;39.778;2.710;2023-01-29T09:11:56;102241.63;;;8.46;100.00
54308;BME280;40208;39.778;2.710;2023-01-29T09:14:40;102233.75;;;8.39;100.00
54308;BME280;40208;39.778;2.710;2023-01-29T09:17:25;102227.75;;;8.24;100.00
54308;BME280;40208;39.778;2.710;2023-01-29T09:20:10;102207.50;;;8.22;100.00
54308;BME280;40208;39.778;2.710;2023-01-29T09:22:54;102220.78;;;8.17;100.00
54308;BME280;40208;39.778;2.710;2023-01-29T09:25:41;102221.72;;;8.13;100.00
54308;BME280;40208;39.778;2.710;2023-01-29T09:28:25;102228.78;;;8.11;100.00
54308;BME280;40208;39.778;2.710;2023-01-29T09:31:10;102226.19;;;8.08;100.00
54308;BME280;40208;39.778;2.710;2023-01-29T09:33:54;102226.25;;;8.02;100.00
54308;BME280;40208;39.778;2.710;2023-01-29T09:36:39;102235.94;;;8.03;100.00
54308;BME280;40208;39.778;2.710;2023-01-29T09:39:23;102234.13;;;8.06;100.00
54308;BME280;40208;39.778;2.710;2023-01-29T09:42:10;102231.47;;;8.10;100.00
54308;BME280;40208;39.778;2.710;2023-01-29T09:45:15;102239.41;;;8.10;100.00
54308;BME280;40208;39.778;2.710;2023-01-29T09:48:07;102239.41;;;8.08;100.00
54308;BME280;40208;39.778;2.710;2023-01-29T09:50:53;102237.63;;;8.12;100.00
54308;BME280;40208;39.778;2.710;2023-01-29T09:53:50;102241.94;;;8.17;100.00
54308;BME280;40208;39.778;2.710;2023-01-29T09:56:37;102248.16;;;8.15;100.00
54308;BME280;40208;39.778;2.710;2023-01-29T09:59:22;102242.00;;;8.13;100.00
54308;BME280;40208;39.778;2.710;2023-01-29T10:02:09;102248.06;;;8.24;100.00
54308;BME280;40208;39.778;2.710;2023-01-29T10:10:59;102258.53;;;8.30;100.00
54308;BME280;40208;39.778;2.710;2023-01-29T10:25:18;102243.34;;;8.49;100.00
54308;BME280;40208;39.778;2.710;2023-01-29T10:28:04;102251.22;;;8.54;100.00
54308;BME280;40208;39.778;2.710;2023-01-29T10:30:59;102246.84;;;8.53;100.00
54308;BME280;40208;39.778;2.710;2023-01-29T10:33:49;102251.22;;;8.54;100.00
54308;BME280;40208;39.778;2.710;2023-01-29T10:36:37;102255.53;;;8.64;100.00
54308;BME280;40208;39.778;2.710;2023-01-29T10:39:26;102257.38;;;8.57;100.00
54308;BME280;40208;39.778;2.710;2023-01-29T10:45:22;102260.81;;;8.64;100.00
54308;BME280;40208;39.778;2.710;2023-01-29T10:53:58;102257.56;;;9.07;100.00
54308;BME280;40208;39.778;2.710;2023-01-29T11:02:20;102289.03;;;9.25;100.00
54308;BME280;40208;39.778;2.710;2023-01-29T11:05:11;102300.53;;;9.26;100.00
54308;BME280;40208;39.778;2.710;2023-01-29T11:08:01;102286.50;;;9.19;100.00
54308;BME280;40208;39.778;2.710;2023-01-29T11:11:11;102280.66;;;8.97;100.00
54308;BME280;40208;39.778;2.710;2023-01-29T11:14:02;102275.41;;;8.93;100.00
54308;BME280;40208;39.778;2.710;2023-01-29T11:16:52;102264.84;;;8.89;100.00
54308;BME280;40208;39.778;2.710;2023-01-29T11:19:40;102261.38;;;8.87;100.00
54308;BME280;40208;39.778;2.710;2023-01-29T11:22:26;102257.94;;;8.79;100.00
54308;BME280;40208;39.778;2.710;2023-01-29T11:25:15;102243.03;;;8.74;100.00
54308;BME280;40208;39.778;2.710;2023-01-29T11:28:00;102260.66;;;8.76;100.00
54308;BME280;40208;39.778;2.710;2023-01-29T11:30:45;102247.47;;;8.70;100.00
54308;BME280;40208;39.778;2.710;2023-01-29T11:33:30;102246.66;;;8.66;100.00
54308;BME280;40208;39.778;2.710;2023-01-29T11:36:23;102243.22;;;8.60;100.00
54308;BME280;40208;39.778;2.710;2023-01-29T11:39:16;102237.88;;;8.64;100.00
54308;BME280;40208;39.778;2.710;2023-01-29T11:42:02;102237.00;;;8.61;100.00
54308;BME280;40208;39.778;2.710;2023-01-29T11:44:48;102232.59;;;8.63;100.00
54308;BME280;40208;39.778;2.710;2023-01-29T11:47:33;102229.97;;;8.61;100.00
54308;BME280;40208;39.778;2.710;2023-01-29T11:50:21;102225.50;;;8.63;100.00
54308;BME280;40208;39.778;2.710;2023-01-29T11:53:16;102221.13;;;8.64;100.00
54308;BME280;40208;39.778;2.710;2023-01-29T11:56:26;102213.19;;;8.61;100.00
54308;BME280;40208;39.778;2.710;2023-01-29T12:05:05;102196.13;;;8.83;100.00
54308;BME280;40208;39.778;2.710;2023-01-29T12:07:57;102193.53;;;8.79;100.00
54308;BME280;40208;39.778;2.710;2023-01-29T12:10:45;102191.88;;;8.72;100.00
54308;BME280;40208;39.778;2.710;2023-01-29T12:13:29;102208.44;;;8.84;100.00
54308;BME280;40208;39.778;2.710;2023-01-29T12:19:04;102230.56;;;8.82;100.00
54308;BME280;40208;39.778;2.710;2023-01-29T12:31:11;102217.69;;;8.56;100.00
54308;BME280;40208;39.778;2.710;2023-01-29T12:34:04;102217.75;;;8.51;100.00
54308;BME280;40208;39.778;2.710;2023-01-29T12:39:37;102192.34;;;8.38;100.00
54308;BME280;40208;39.778;2.710;2023-01-29T12:42:21;102200.28;;;8.36;100.00
54308;BME280;40208;39.778;2.710;2023-01-29T12:45:07;102203.91;;;8.31;100.00
54308;BME280;40208;39.778;2.710;2023-01-29T12:47:54;102195.09;;;8.27;100.00
54308;BME280;40208;39.778;2.710;2023-01-29T12:50:41;102188.13;;;8.21;100.00
54308;BME280;40208;39.778;2.710;2023-01-29T12:53:31;102191.63;;;8.23;100.00
54308;BME280;40208;39.778;2.710;2023-01-29T12:59:16;102185.41;;;8.27;100.00
54308;BME280;40208;39.778;2.710;2023-01-29T13:02:05;102176.41;;;8.39;100.00
54308;BME280;40208;39.778;2.710;2023-01-29T13:05:00;102186.13;;;8.39;100.00
54308;BME280;40208;39.778;2.710;2023-01-29T13:07:48;102184.34;;;8.39;100.00
54308;BME280;40208;39.778;2.710;2023-01-29T13:10:47;102192.25;;;8.45;100.00
54308;BME280;40208;39.778;2.710;2023-01-29T13:13:37;102195.78;;;8.44;100.00
54308;BME280;40208;39.778;2.710;2023-01-29T13:16:26;102188.69;;;8.46;100.00
54308;BME280;40208;39.778;2.710;2023-01-29T13:19:26;102182.56;;;8.44;100.00
54308;BME280;40208;39.778;2.710;2023-01-29T13:22:25;102173.78;;;8.39;100.00
54308;BME280;40208;39.778;2.710;2023-01-29T13:25:12;102172.91;;;8.37;100.00
54308;BME280;40208;39.778;2.710;2023-01-29T13:27:58;102159.69;;;8.39;100.00
54308;BME280;40208;39.778;2.710;2023-01-29T13:30:43;102164.75;;;8.56;100.00
54308;BME280;40208;39.778;2.710;2023-01-29T13:33:28;102168.34;;;8.52;100.00
54308;BME280;40208;39.778;2.710;2023-01-29T13:36:14;102165.69;;;8.52;100.00
54308;BME280;40208;39.778;2.710;2023-01-29T13:39:03;102163.09;;;8.48;100.00
54308;BME280;40208;39.778;2.710;2023-01-29T13:41:49;102163.09;;;8.48;100.00
54308;BME280;40208;39.778;2.710;2023-01-29T13:44:36;102154.22;;;8.53;100.00
54308;BME280;40208;39.778;2.710;2023-01-29T13:47:28;102169.25;;;8.52;100.00
54308;BME280;40208;39.778;2.710;2023-01-29T13:53:08;102167.41;;;8.54;100.00
54308;BME280;40208;39.778;2.710;2023-01-29T13:59:05;102174.59;;;8.46;100.00
54308;BME280;40208;39.778;2.710;2023-01-29T14:04:34;102164.94;;;8.42;100.00
54308;BME280;40208;39.778;2.710;2023-01-29T14:10:23;102162.28;;;8.45;100.00
54308;BME280;40208;39.778;2.710;2023-01-29T14:18:56;102182.59;;;8.43;100.00
54308;BME280;40208;39.778;2.710;2023-01-29T14:21:47;102188.69;;;8.46;100.00
54308;BME280;40208;39.778;2.710;2023-01-29T14:24:32;102201.91;;;8.49;100.00
54308;BME280;40208;39.778;2.710;2023-01-29T14:27:19;102205.31;;;8.58;100.00
54308;BME280;40208;39.778;2.710;2023-01-29T14:30:05;102210.66;;;8.55;100.00
54308;BME280;40208;39.778;2.710;2023-01-29T14:32:52;102209.75;;;8.56;100.00
54308;BME280;40208;39.778;2.710;2023-01-29T14:35:38;102211.59;;;8.49;100.00
54308;BME280;40208;39.778;2.710;2023-01-29T14:38:24;102214.38;;;8.38;100.00
54308;BME280;40208;39.778;2.710;2023-01-29T14:41:16;102218.88;;;8.30;100.00
54308;BME280;40208;39.778;2.710;2023-01-29T14:53:33;102227.84;;;8.17;100.00
54308;BME280;40208;39.778;2.710;2023-01-29T14:56:33;102226.22;;;8.05;100.00
54308;BME280;40208;39.778;2.710;2023-01-29T14:59:19;102218.34;;;8.00;100.00
54308;BME280;40208;39.778;2.710;2023-01-29T15:02:14;102215.75;;;7.96;100.00
54308;BME280;40208;39.778;2.710;2023-01-29T15:05:00;102210.53;;;7.91;100.00
54308;BME280;40208;39.778;2.710;2023-01-29T15:10:36;102200.91;;;7.84;100.00
54308;BME280;40208;39.778;2.710;2023-01-29T15:13:23;102199.13;;;7.83;100.00
54308;BME280;40208;39.778;2.710;2023-01-29T15:16:12;102212.38;;;7.81;100.00
54308;BME280;40208;39.778;2.710;2023-01-29T15:19:04;102206.25;;;7.81;100.00
54308;BME280;40208;39.778;2.710;2023-01-29T15:22:01;102213.16;;;7.91;100.00
54308;BME280;40208;39.778;2.710;2023-01-29T15:24:46;102219.31;;;7.93;100.00
54308;BME280;40208;39.778;2.710;2023-01-29T15:27:31;102214.94;;;7.89;100.00
54308;BME280;40208;39.778;2.710;2023-01-29T15:30:18;102230.81;;;7.91;100.00
54308;BME280;40208;39.778;2.710;2023-01-29T15:33:03;102223.84;;;7.82;100.00
54308;BME280;40208;39.778;2.710;2023-01-29T15:36:00;102223.78;;;7.88;100.00
54308;BME280;40208;39.778;2.710;2023-01-29T15:38:46;102213.22;;;7.88;100.00
54308;BME280;40208;39.778;2.710;2023-01-29T15:41:30;102216.72;;;7.90;100.00
54308;BME280;40208;39.778;2.710;2023-01-29T15:44:24;102219.41;;;7.84;100.00
54308;BME280;40208;39.778;2.710;2023-01-29T15:47:10;102218.53;;;7.83;100.00
54308;BME280;40208;39.778;2.710;2023-01-29T15:49:55;102219.47;;;7.78;100.00
54308;BME280;40208;39.778;2.710;2023-01-29T15:52:40;102223.06;;;7.72;100.00
54308;BME280;40208;39.778;2.710;2023-01-29T15:55:25;102220.47;;;7.68;100.00
54308;BME280;40208;39.778;2.710;2023-01-29T15:58:12;102224.84;;;7.70;100.00
54308;BME280;40208;39.778;2.710;2023-01-29T16:00:59;102233.63;;;7.72;100.00
54308;BME280;40208;39.778;2.710;2023-01-29T16:03:44;102244.16;;;7.78;100.00
54308;BME280;40208;39.778;2.710;2023-01-29T16:06:33;102231.84;;;7.74;100.00
54308;BME280;40208;39.778;2.710;2023-01-29T16:09:19;102255.59;;;7.79;100.00
54308;BME280;40208;39.778;2.710;2023-01-29T16:12:04;102260.06;;;7.74;100.00
54308;BME280;40208;39.778;2.710;2023-01-29T16:14:49;102267.97;;;7.72;100.00
54308;BME280;40208;39.778;2.710;2023-01-29T16:17:38;102266.28;;;7.67;100.00
54308;BME280;40208;39.778;2.710;2023-01-29T16:20:30;102258.34;;;7.67;100.00
54308;BME280;40208;39.778;2.710;2023-01-29T16:23:17;102252.22;;;7.64;100.00
54308;BME280;40208;39.778;2.710;2023-01-29T16:26:06;102253.13;;;7.59;100.00
54308;BME280;40208;39.778;2.710;2023-01-29T16:28:52;102269.88;;;7.56;100.00
54308;BME280;40208;39.778;2.710;2023-01-29T16:31:37;102273.44;;;7.54;100.00
54308;BME280;40208;39.778;2.710;2023-01-29T16:34:33;102276.09;;;7.52;100.00
54308;BME280;40208;39.778;2.710;2023-01-29T16:37:20;102285.75;;;7.53;100.00
54308;BME280;40208;39.778;2.710;2023-01-29T16:46:01;102272.56;;;7.52;100.00
54308;BME280;40208;39.778;2.710;2023-01-29T16:48:46;102275.22;;;7.50;100.00
54308;BME280;40208;39.778;2.710;2023-01-29T16:51:37;102271.66;;;7.54;100.00
54308;BME280;40208;39.778;2.710;2023-01-29T16:54:25;102276.94;;;7.57;100.00